KPIR

Pierre Regional Airport

Pierre, South Dakota, USA
METAR KPIR 200453Z AUTO 02005KT 10SM CLR 17/16 A2999 RMK AO2 SLP146 T01720156
Observed Flight Rules
Jun-20 @ 04:53 UTC (51 minutes ago) Visual Flight Rules
Wind Visibility Clouds
20° at 5 knots 10 miles
  • Clear skies
Temperatures Readings
Current 17°C / 63°F
Dewpoint 16°C / 61°F
Humidity 94%
Altimeter 29.99" Hg
Pressure 1014.6 hPa
Elevation 526
METAR KPIR 200453Z AUTO 02005KT 10SM CLR 17/16 A2999 RMK AO2 SLP146 T01720156
Observed Flight Rules
Jun-20 @ 04:53 UTC
(51 minutes ago)
VFR
Wind Visibility
20° at 5 knots 10 miles
Clouds
  • Clear skies
Temperature Dewpoint
17°C / 63°F 16°C / 61°F
Humidity Altimeter Pressure
94% 29.99" Hg 1014.6 hPa